sensor_id;sensor_type;location;lat;lon;timestamp;temperature;humidity
4604;DHT22;2314;48.272;11.562;2023-07-28T10:36:18;25.30;99.90
4604;DHT22;2314;48.272;11.562;2023-07-28T10:39:00;24.70;99.90
4604;DHT22;2314;48.272;11.562;2023-07-28T10:41:29;24.50;99.90
4604;DHT22;2314;48.272;11.562;2023-07-28T10:43:56;24.40;99.90
4604;DHT22;2314;48.272;11.562;2023-07-28T10:46:23;24.20;99.90
4604;DHT22;2314;48.272;11.562;2023-07-28T10:48:50;24.20;99.90
4604;DHT22;2314;48.272;11.562;2023-07-28T10:51:23;24.20;99.90
4604;DHT22;2314;48.272;11.562;2023-07-28T10:53:51;23.90;99.90
4604;DHT22;2314;48.272;11.562;2023-07-28T10:56:19;23.60;99.90
4604;DHT22;2314;48.272;11.562;2023-07-28T10:58:47;23.30;99.90
4604;DHT22;2314;48.272;11.562;2023-07-28T11:01:15;23.30;99.90
4604;DHT22;2314;48.272;11.562;2023-07-28T11:03:42;23.50;99.90
4604;DHT22;2314;48.272;11.562;2023-07-28T11:06:09;23.60;99.90
4604;DHT22;2314;48.272;11.562;2023-07-28T11:08:38;23.50;99.90
4604;DHT22;2314;48.272;11.562;2023-07-28T11:11:06;23.40;99.90
4604;DHT22;2314;48.272;11.562;2023-07-28T11:13:33;23.30;99.90
4604;DHT22;2314;48.272;11.562;2023-07-28T11:16:00;23.30;99.90
4604;DHT22;2314;48.272;11.562;2023-07-28T11:18:28;23.30;99.90
4604;DHT22;2314;48.272;11.562;2023-07-28T11:20:56;23.30;99.90
4604;DHT22;2314;48.272;11.562;2023-07-28T11:23:23;23.30;99.90
4604;DHT22;2314;48.272;11.562;2023-07-28T11:25:52;23.20;99.90
4604;DHT22;2314;48.272;11.562;2023-07-28T11:28:19;23.20;99.90
4604;DHT22;2314;48.272;11.562;2023-07-28T11:30:46;23.20;99.90
4604;DHT22;2314;48.272;11.562;2023-07-28T11:33:13;23.20;99.90
4604;DHT22;2314;48.272;11.562;2023-07-28T11:35:44;23.20;99.90
4604;DHT22;2314;48.272;11.562;2023-07-28T11:38:11;23.10;99.90
4604;DHT22;2314;48.272;11.562;2023-07-28T11:40:40;23.10;99.90
4604;DHT22;2314;48.272;11.562;2023-07-28T11:43:09;23.10;99.90
4604;DHT22;2314;48.272;11.562;2023-07-28T11:45:36;23.10;99.90
4604;DHT22;2314;48.272;11.562;2023-07-28T11:48:04;23.10;99.90
4604;DHT22;2314;48.272;11.562;2023-07-28T11:50:35;23.10;99.90
4604;DHT22;2314;48.272;11.562;2023-07-28T11:53:04;23.00;99.90
4604;DHT22;2314;48.272;11.562;2023-07-28T11:55:33;23.10;99.90
4604;DHT22;2314;48.272;11.562;2023-07-28T11:58:01;23.10;99.90
4604;DHT22;2314;48.272;11.562;2023-07-28T12:00:32;23.10;99.90
4604;DHT22;2314;48.272;11.562;2023-07-28T12:03:02;23.10;99.90
4604;DHT22;2314;48.272;11.562;2023-07-28T12:05:30;23.10;99.90
4604;DHT22;2314;48.272;11.562;2023-07-28T12:07:58;23.10;99.90
4604;DHT22;2314;48.272;11.562;2023-07-28T12:10:25;23.10;99.90
4604;DHT22;2314;48.272;11.562;2023-07-28T12:12:53;23.10;99.90
4604;DHT22;2314;48.272;11.562;2023-07-28T12:15:22;23.10;99.90
4604;DHT22;2314;48.272;11.562;2023-07-28T12:18:13;23.10;99.90
4604;DHT22;2314;48.272;11.562;2023-07-28T12:20:43;23.10;99.90
4604;DHT22;2314;48.272;11.562;2023-07-28T12:23:12;23.10;99.90
4604;DHT22;2314;48.272;11.562;2023-07-28T12:25:40;23.20;99.90
4604;DHT22;2314;48.272;11.562;2023-07-28T12:28:07;23.20;99.90
4604;DHT22;2314;48.272;11.562;2023-07-28T12:30:35;23.10;99.90
4604;DHT22;2314;48.272;11.562;2023-07-28T12:33:02;23.20;99.90
4604;DHT22;2314;48.272;11.562;2023-07-28T12:35:31;23.20;99.90
4604;DHT22;2314;48.272;11.562;2023-07-28T12:38:00;23.20;99.90
4604;DHT22;2314;48.272;11.562;2023-07-28T12:40:30;23.20;99.90
4604;DHT22;2314;48.272;11.562;2023-07-28T12:42:58;23.20;99.90
4604;DHT22;2314;48.272;11.562;2023-07-28T12:45:26;23.20;99.90
4604;DHT22;2314;48.272;11.562;2023-07-28T12:47:53;23.20;99.90
4604;DHT22;2314;48.272;11.562;2023-07-28T12:50:22;23.20;99.90
4604;DHT22;2314;48.272;11.562;2023-07-28T12:52:50;23.30;99.90
4604;DHT22;2314;48.272;11.562;2023-07-28T12:55:18;23.30;99.90
4604;DHT22;2314;48.272;11.562;2023-07-28T12:57:46;23.30;99.90
4604;DHT22;2314;48.272;11.562;2023-07-28T13:00:15;23.30;99.90
4604;DHT22;2314;48.272;11.562;2023-07-28T13:02:43;23.30;99.90
4604;DHT22;2314;48.272;11.562;2023-07-28T13:05:11;23.40;99.90
4604;DHT22;2314;48.272;11.562;2023-07-28T13:07:39;23.40;99.90
4604;DHT22;2314;48.272;11.562;2023-07-28T13:10:10;23.40;99.90
4604;DHT22;2314;48.272;11.562;2023-07-28T13:12:38;23.40;99.90
4604;DHT22;2314;48.272;11.562;2023-07-28T13:15:06;23.50;99.90
4604;DHT22;2314;48.272;11.562;2023-07-28T13:17:33;23.60;99.90
4604;DHT22;2314;48.272;11.562;2023-07-28T13:20:00;23.60;99.90
4604;DHT22;2314;48.272;11.562;2023-07-28T13:22:28;23.60;99.90
4604;DHT22;2314;48.272;11.562;2023-07-28T13:24:55;23.60;99.90
4604;DHT22;2314;48.272;11.562;2023-07-28T13:27:23;23.50;99.90
4604;DHT22;2314;48.272;11.562;2023-07-28T13:29:50;23.50;99.90
4604;DHT22;2314;48.272;11.562;2023-07-28T13:32:18;23.50;99.90
4604;DHT22;2314;48.272;11.562;2023-07-28T13:34:52;23.60;99.90
4604;DHT22;2314;48.272;11.562;2023-07-28T13:37:19;23.50;99.90
4604;DHT22;2314;48.272;11.562;2023-07-28T13:39:46;23.50;99.90
4604;DHT22;2314;48.272;11.562;2023-07-28T13:42:13;23.50;99.90
4604;DHT22;2314;48.272;11.562;2023-07-28T13:44:42;23.50;99.90
4604;DHT22;2314;48.272;11.562;2023-07-28T13:47:09;23.50;99.90
4604;DHT22;2314;48.272;11.562;2023-07-28T13:49:36;23.60;99.90
4604;DHT22;2314;48.272;11.562;2023-07-28T13:52:05;23.60;99.90
4604;DHT22;2314;48.272;11.562;2023-07-28T13:54:32;23.70;99.90
4604;DHT22;2314;48.272;11.562;2023-07-28T13:56:59;23.90;99.90
4604;DHT22;2314;48.272;11.562;2023-07-28T13:59:26;23.80;99.90
4604;DHT22;2314;48.272;11.562;2023-07-28T14:01:55;23.80;99.90
4604;DHT22;2314;48.272;11.562;2023-07-28T14:04:23;23.70;99.90
4604;DHT22;2314;48.272;11.562;2023-07-28T14:06:50;23.70;99.90
4604;DHT22;2314;48.272;11.562;2023-07-28T14:09:17;23.70;99.90
4604;DHT22;2314;48.272;11.562;2023-07-28T14:11:44;23.60;99.90
4604;DHT22;2314;48.272;11.562;2023-07-28T14:14:11;23.60;99.90
4604;DHT22;2314;48.272;11.562;2023-07-28T14:16:38;23.60;99.90
4604;DHT22;2314;48.272;11.562;2023-07-28T14:19:06;23.60;99.90
4604;DHT22;2314;48.272;11.562;2023-07-28T14:21:33;23.60;99.90
4604;DHT22;2314;48.272;11.562;2023-07-28T14:24:04;23.60;99.90
4604;DHT22;2314;48.272;11.562;2023-07-28T14:26:30;23.60;99.90
4604;DHT22;2314;48.272;11.562;2023-07-28T14:28:57;23.70;99.90
4604;DHT22;2314;48.272;11.562;2023-07-28T14:31:25;23.60;99.90
4604;DHT22;2314;48.272;11.562;2023-07-28T14:33:52;23.60;99.90
4604;DHT22;2314;48.272;11.562;2023-07-28T14:36:21;23.60;99.90
4604;DHT22;2314;48.272;11.562;2023-07-28T14:38:48;23.60;99.90
4604;DHT22;2314;48.272;11.562;2023-07-28T14:41:15;23.60;99.90
4604;DHT22;2314;48.272;11.562;2023-07-28T14:43:43;23.60;99.90
4604;DHT22;2314;48.272;11.562;2023-07-28T14:46:11;23.60;99.90
4604;DHT22;2314;48.272;11.562;2023-07-28T14:48:38;23.60;99.90
4604;DHT22;2314;48.272;11.562;2023-07-28T14:51:05;23.60;99.90
4604;DHT22;2314;48.272;11.562;2023-07-28T14:53:36;23.60;99.90
4604;DHT22;2314;48.272;11.562;2023-07-28T14:56:05;23.60;99.90
4604;DHT22;2314;48.272;11.562;2023-07-28T14:58:34;23.60;99.90
4604;DHT22;2314;48.272;11.562;2023-07-28T15:01:02;23.70;99.90
4604;DHT22;2314;48.272;11.562;2023-07-28T15:03:30;23.70;99.90
4604;DHT22;2314;48.272;11.562;2023-07-28T15:05:58;23.70;99.90
4604;DHT22;2314;48.272;11.562;2023-07-28T15:08:26;23.70;99.90
4604;DHT22;2314;48.272;11.562;2023-07-28T15:10:56;23.70;99.90
4604;DHT22;2314;48.272;11.562;2023-07-28T15:13:24;23.70;99.90
4604;DHT22;2314;48.272;11.562;2023-07-28T15:15:51;23.70;99.90
4604;DHT22;2314;48.272;11.562;2023-07-28T15:18:18;23.70;99.90
4604;DHT22;2314;48.272;11.562;2023-07-28T15:20:45;23.80;99.90
4604;DHT22;2314;48.272;11.562;2023-07-28T15:23:12;23.80;99.90
4604;DHT22;2314;48.272;11.562;2023-07-28T15:25:39;23.80;99.90
4604;DHT22;2314;48.272;11.562;2023-07-28T15:28:11;23.80;99.90
4604;DHT22;2314;48.272;11.562;2023-07-28T15:30:39;23.80;99.90
4604;DHT22;2314;48.272;11.562;2023-07-28T15:33:06;23.80;99.90
4604;DHT22;2314;48.272;11.562;2023-07-28T15:35:33;23.80;99.90
4604;DHT22;2314;48.272;11.562;2023-07-28T15:38:00;23.80;99.90
4604;DHT22;2314;48.272;11.562;2023-07-28T15:40:29;23.80;99.90
4604;DHT22;2314;48.272;11.562;2023-07-28T15:42:56;23.90;99.90
4604;DHT22;2314;48.272;11.562;2023-07-28T15:45:24;23.90;99.90
4604;DHT22;2314;48.272;11.562;2023-07-28T15:47:51;23.80;99.90
4604;DHT22;2314;48.272;11.562;2023-07-28T15:50:18;23.80;99.90
4604;DHT22;2314;48.272;11.562;2023-07-28T15:52:45;23.80;99.90
4604;DHT22;2314;48.272;11.562;2023-07-28T15:55:13;23.80;99.90
4604;DHT22;2314;48.272;11.562;2023-07-28T15:57:41;23.80;99.90
4604;DHT22;2314;48.272;11.562;2023-07-28T16:00:08;23.80;99.90
4604;DHT22;2314;48.272;11.562;2023-07-28T16:02:40;23.80;99.90
4604;DHT22;2314;48.272;11.562;2023-07-28T16:05:07;23.80;99.90
4604;DHT22;2314;48.272;11.562;2023-07-28T16:07:35;23.80;99.90
4604;DHT22;2314;48.272;11.562;2023-07-28T16:10:02;23.80;99.90
4604;DHT22;2314;48.272;11.562;2023-07-28T16:12:29;23.80;99.90
4604;DHT22;2314;48.272;11.562;2023-07-28T16:14:56;23.80;99.90
4604;DHT22;2314;48.272;11.562;2023-07-28T16:17:23;23.80;99.90
4604;DHT22;2314;48.272;11.562;2023-07-28T16:19:52;23.80;99.90
4604;DHT22;2314;48.272;11.562;2023-07-28T16:22:19;23.80;99.90
4604;DHT22;2314;48.272;11.562;2023-07-28T16:24:46;23.80;99.90
4604;DHT22;2314;48.272;11.562;2023-07-28T16:27:13;23.80;99.90
4604;DHT22;2314;48.272;11.562;2023-07-28T16:29:40;23.80;99.90
4604;DHT22;2314;48.272;11.562;2023-07-28T16:32:07;23.80;99.90
4604;DHT22;2314;48.272;11.562;2023-07-28T16:34:36;23.80;99.90
4604;DHT22;2314;48.272;11.562;2023-07-28T16:37:04;23.80;99.90
4604;DHT22;2314;48.272;11.562;2023-07-28T16:39:31;23.80;99.90
4604;DHT22;2314;48.272;11.562;2023-07-28T16:41:59;23.80;99.90
4604;DHT22;2314;48.272;11.562;2023-07-28T16:44:27;23.70;99.90
4604;DHT22;2314;48.272;11.562;2023-07-28T16:46:55;23.70;99.90
4604;DHT22;2314;48.272;11.562;2023-07-28T16:49:21;23.70;99.90
4604;DHT22;2314;48.272;11.562;2023-07-28T16:51:49;23.70;99.90
4604;DHT22;2314;48.272;11.562;2023-07-28T16:54:17;23.70;99.90
4604;DHT22;2314;48.272;11.562;2023-07-28T16:56:44;23.70;99.90
4604;DHT22;2314;48.272;11.562;2023-07-28T16:59:11;23.70;99.90
4604;DHT22;2314;48.272;11.562;2023-07-28T17:01:38;23.70;99.90
4604;DHT22;2314;48.272;11.562;2023-07-28T17:04:05;23.70;99.90
4604;DHT22;2314;48.272;11.562;2023-07-28T17:06:32;23.70;99.90
4604;DHT22;2314;48.272;11.562;2023-07-28T17:08:59;23.60;99.90
4604;DHT22;2314;48.272;11.562;2023-07-28T17:11:27;23.60;99.90
4604;DHT22;2314;48.272;11.562;2023-07-28T17:13:54;23.60;99.90
4604;DHT22;2314;48.272;11.562;2023-07-28T17:16:21;23.60;99.90
4604;DHT22;2314;48.272;11.562;2023-07-28T17:18:50;23.60;99.90
4604;DHT22;2314;48.272;11.562;2023-07-28T17:21:17;23.60;99.90
4604;DHT22;2314;48.272;11.562;2023-07-28T17:23:45;23.60;99.90
4604;DHT22;2314;48.272;11.562;2023-07-28T17:26:12;23.60;99.90
4604;DHT22;2314;48.272;11.562;2023-07-28T17:28:40;23.60;99.90
4604;DHT22;2314;48.272;11.562;2023-07-28T17:31:07;23.60;99.90
4604;DHT22;2314;48.272;11.562;2023-07-28T17:33:34;23.60;99.90
4604;DHT22;2314;48.272;11.562;2023-07-28T17:36:01;23.60;99.90
4604;DHT22;2314;48.272;11.562;2023-07-28T17:38:28;23.60;99.90
4604;DHT22;2314;48.272;11.562;2023-07-28T17:40:56;23.60;99.90
4604;DHT22;2314;48.272;11.562;2023-07-28T17:43:23;23.60;99.90
4604;DHT22;2314;48.272;11.562;2023-07-28T17:45:51;23.60;99.90
4604;DHT22;2314;48.272;11.562;2023-07-28T17:48:18;23.60;99.90
4604;DHT22;2314;48.272;11.562;2023-07-28T17:50:45;23.60;99.90
4604;DHT22;2314;48.272;11.562;2023-07-28T17:53:12;23.50;99.90
4604;DHT22;2314;48.272;11.562;2023-07-28T17:55:39;23.50;99.90
4604;DHT22;2314;48.272;11.562;2023-07-28T17:58:06;23.50;99.90
4604;DHT22;2314;48.272;11.562;2023-07-28T18:00:33;23.50;99.90
4604;DHT22;2314;48.272;11.562;2023-07-28T18:03:02;23.50;99.90
4604;DHT22;2314;48.272;11.562;2023-07-28T18:05:30;23.50;99.90
4604;DHT22;2314;48.272;11.562;2023-07-28T18:07:57;23.50;99.90
4604;DHT22;2314;48.272;11.562;2023-07-28T18:10:24;23.50;99.90
4604;DHT22;2314;48.272;11.562;2023-07-28T18:12:51;23.50;99.90
4604;DHT22;2314;48.272;11.562;2023-07-28T18:15:18;23.50;99.90
4604;DHT22;2314;48.272;11.562;2023-07-28T18:17:45;23.50;99.90
4604;DHT22;2314;48.272;11.562;2023-07-28T18:20:14;23.50;99.90
4604;DHT22;2314;48.272;11.562;2023-07-28T18:22:41;23.50;99.90
4604;DHT22;2314;48.272;11.562;2023-07-28T18:25:08;23.50;99.90
4604;DHT22;2314;48.272;11.562;2023-07-28T18:27:35;23.50;99.90
4604;DHT22;2314;48.272;11.562;2023-07-28T18:30:02;23.50;99.90
4604;DHT22;2314;48.272;11.562;2023-07-28T18:32:29;23.50;99.90
4604;DHT22;2314;48.272;11.562;2023-07-28T18:34:56;23.50;99.90
